Time;durP1;ratioP1;P1;durP2;ratioP2;P2;SDS_P1;SDS_P2;PMS_P1;PMS_P2;Temp;Humidity;BMP_temperature;BMP_pressure;BME280_temperature;BME280_humidity;BME280_pressure;Samples;Min_cycle;Max_cycle;Signal;HPM_P1;HPM_P2
2023/06/14 00:00:40;;;;;;;3.03;2.60;;;;;;;;;;5036275;28;20026;-63
2023/06/14 00:03:17;;;;;;;3.20;2.42;;;;;;;;;;5036112;28;20029;-63
2023/06/14 00:05:43;;;;;;;4.88;2.70;;;;;;;;;;5036544;28;20029;-63
2023/06/14 00:08:09;;;;;;;3.85;2.40;;;;;;;;;;5036093;28;20025;-62
2023/06/14 00:10:40;;;;;;;2.92;2.63;;;;;;;;;;5036052;28;20107;-63
2023/06/14 00:13:07;;;;;;;2.75;2.20;;;;;;;;;;5036054;28;20033;-63
2023/06/14 00:15:33;;;;;;;2.63;2.42;;;;;;;;;;5035898;28;20041;-63
2023/06/14 00:18:01;;;;;;;2.63;2.42;;;;;;;;;;5035939;28;20055;-63
2023/06/14 00:20:27;;;;;;;2.92;2.38;;;;;;;;;;5035879;28;20025;-63
2023/06/14 00:22:55;;;;;;;3.15;2.53;;;;;;;;;;5035916;28;20461;-63
2023/06/14 00:25:22;;;;;;;3.53;2.70;;;;;;;;;;5035814;28;20084;-63
2023/06/14 00:27:47;;;;;;;3.53;2.55;;;;;;;;;;5035789;28;20018;-63
2023/06/14 00:30:13;;;;;;;2.90;2.60;;;;;;;;;;5036037;28;20427;-63
2023/06/14 00:32:39;;;;;;;4.28;2.60;;;;;;;;;;5035676;28;20032;-63
2023/06/14 00:35:05;;;;;;;3.10;2.50;;;;;;;;;;5035836;28;20034;-63
2023/06/14 00:37:30;;;;;;;4.85;2.60;;;;;;;;;;5035506;28;20026;-63
2023/06/14 00:39:56;;;;;;;3.28;2.63;;;;;;;;;;5035541;28;20064;-63
2023/06/14 00:42:25;;;;;;;5.18;2.50;;;;;;;;;;5035467;28;20048;-63
2023/06/14 00:44:51;;;;;;;3.30;2.83;;;;;;;;;;5035579;28;20036;-63
2023/06/14 00:47:16;;;;;;;2.72;2.20;;;;;;;;;;5035663;28;20030;-63
2023/06/14 00:49:42;;;;;;;3.40;2.15;;;;;;;;;;5035924;28;20527;-63
2023/06/14 00:52:12;;;;;;;3.33;2.45;;;;;;;;;;5035720;28;20021;-63
2023/06/14 00:54:37;;;;;;;3.17;2.30;;;;;;;;;;5035474;28;20043;-63
2023/06/14 00:57:03;;;;;;;2.85;2.42;;;;;;;;;;5035562;28;20108;-63
2023/06/14 00:59:29;;;;;;;4.65;2.38;;;;;;;;;;5035356;28;20025;-62
2023/06/14 01:01:54;;;;;;;2.90;2.22;;;;;;;;;;5034706;28;20436;-63
2023/06/14 01:04:20;;;;;;;3.40;2.45;;;;;;;;;;5035141;28;20469;-62
2023/06/14 01:07:13;;;;;;;5.80;3.00;;;;;;;;;;5035015;28;20096;-62
2023/06/14 01:10:10;;;;;;;4.30;2.20;;;;;;;;;;5034770;28;20052;-63
2023/06/14 01:12:44;;;;;;;7.30;2.90;;;;;;;;;;5035064;28;20029;-63
2023/06/14 01:15:12;;;;;;;3.78;2.63;;;;;;;;;;5035057;28;20030;-63
2023/06/14 01:17:41;;;;;;;3.35;2.28;;;;;;;;;;5034881;28;20022;-63
2023/06/14 01:20:11;;;;;;;3.72;2.75;;;;;;;;;;5034739;28;20025;-63
2023/06/14 01:22:42;;;;;;;2.70;2.20;;;;;;;;;;5034851;28;20037;-63
2023/06/14 01:25:08;;;;;;;2.70;2.33;;;;;;;;;;5034979;28;20350;-62
2023/06/14 01:27:34;;;;;;;3.03;2.50;;;;;;;;;;5034685;28;20028;-63
2023/06/14 01:30:03;;;;;;;3.65;2.20;;;;;;;;;;5034881;28;20037;-64
2023/06/14 01:32:29;;;;;;;3.17;2.50;;;;;;;;;;5034601;28;20103;-63
2023/06/14 01:34:55;;;;;;;3.17;2.42;;;;;;;;;;5034499;28;20250;-63
2023/06/14 01:37:22;;;;;;;3.70;2.60;;;;;;;;;;5034540;28;20160;-63
2023/06/14 01:39:49;;;;;;;3.83;2.33;;;;;;;;;;5034673;28;20083;-63
2023/06/14 01:42:16;;;;;;;2.63;2.42;;;;;;;;;;5034484;28;20025;-63
2023/06/14 01:44:42;;;;;;;2.58;2.38;;;;;;;;;;5034343;28;20049;-63
2023/06/14 01:47:09;;;;;;;4.50;2.40;;;;;;;;;;5033126;28;20017;-63
2023/06/14 01:49:35;;;;;;;3.05;2.38;;;;;;;;;;5034221;28;20112;-63
2023/06/14 01:52:04;;;;;;;3.13;2.30;;;;;;;;;;5033087;28;20064;-63
2023/06/14 01:54:30;;;;;;;3.25;2.42;;;;;;;;;;5034064;28;20140;-63
2023/06/14 01:56:56;;;;;;;2.85;2.30;;;;;;;;;;5034118;28;20026;-63
2023/06/14 01:59:22;;;;;;;6.00;2.30;;;;;;;;;;5034350;28;20036;-63
2023/06/14 02:01:47;;;;;;;3.58;2.38;;;;;;;;;;5034107;28;20478;-63
2023/06/14 02:04:13;;;;;;;3.70;2.60;;;;;;;;;;5033898;28;20477;-63
2023/06/14 02:06:38;;;;;;;2.60;2.40;;;;;;;;;;5033957;28;20338;-64
2023/06/14 02:09:04;;;;;;;2.45;2.20;;;;;;;;;;5033992;28;20091;-62
2023/06/14 02:11:30;;;;;;;2.35;2.15;;;;;;;;;;5033886;28;20552;-62
2023/06/14 02:13:56;;;;;;;2.97;2.53;;;;;;;;;;5033996;28;20041;-62
2023/06/14 02:16:22;;;;;;;2.88;2.40;;;;;;;;;;5033754;28;20025;-63
2023/06/14 02:18:48;;;;;;;2.47;2.15;;;;;;;;;;5033638;28;20063;-64
2023/06/14 02:21:14;;;;;;;3.05;2.13;;;;;;;;;;5033685;28;20026;-63
2023/06/14 02:23:39;;;;;;;2.60;2.30;;;;;;;;;;5033548;28;20025;-63
2023/06/14 02:26:05;;;;;;;2.90;2.60;;;;;;;;;;5033572;28;20105;-63
2023/06/14 02:28:31;;;;;;;2.67;2.20;;;;;;;;;;5033500;28;20076;-63
2023/06/14 02:30:56;;;;;;;3.65;2.28;;;;;;;;;;5033486;28;20025;-63
2023/06/14 02:33:22;;;;;;;5.57;2.53;;;;;;;;;;5033996;28;20373;-64
2023/06/14 02:35:48;;;;;;;2.60;2.30;;;;;;;;;;5033622;28;20495;-63
2023/06/14 02:38:13;;;;;;;4.68;2.55;;;;;;;;;;5033312;28;20492;-63
2023/06/14 02:40:42;;;;;;;2.70;2.15;;;;;;;;;;5033326;28;20040;-63
2023/06/14 02:43:07;;;;;;;3.42;2.50;;;;;;;;;;5033470;28;20043;-62
2023/06/14 02:45:33;;;;;;;2.33;2.13;;;;;;;;;;5033470;28;20104;-63
2023/06/14 02:47:59;;;;;;;2.60;2.40;;;;;;;;;;5033138;28;20021;-64
2023/06/14 02:50:25;;;;;;;2.58;2.35;;;;;;;;;;5033523;28;20025;-63
2023/06/14 02:52:52;;;;;;;2.55;2.22;;;;;;;;;;5033054;28;20075;-63
2023/06/14 02:55:18;;;;;;;2.78;2.45;;;;;;;;;;5032953;28;20033;-63
2023/06/14 02:57:43;;;;;;;2.83;2.10;;;;;;;;;;5032929;28;20029;-63
2023/06/14 03:00:10;;;;;;;2.13;1.92;;;;;;;;;;5032937;28;20100;-63
2023/06/14 03:02:35;;;;;;;8.20;2.55;;;;;;;;;;5032803;28;20037;-63
2023/06/14 03:05:02;;;;;;;2.75;2.45;;;;;;;;;;5033166;28;20026;-63
2023/06/14 03:07:29;;;;;;;3.88;2.50;;;;;;;;;;5032778;28;20022;-63
2023/06/14 03:09:55;;;;;;;2.40;2.20;;;;;;;;;;5032661;28;20037;-63
2023/06/14 03:12:20;;;;;;;2.47;2.22;;;;;;;;;;5033022;28;20480;-64
2023/06/14 03:14:46;;;;;;;6.45;2.65;;;;;;;;;;5032634;28;20103;-63
2023/06/14 03:17:12;;;;;;;2.15;1.92;;;;;;;;;;5032649;28;20032;-65
2023/06/14 03:19:37;;;;;;;3.13;2.15;;;;;;;;;;5032608;28;20033;-64
2023/06/14 03:22:03;;;;;;;2.47;2.28;;;;;;;;;;5032584;28;20030;-64
2023/06/14 03:24:29;;;;;;;2.78;2.30;;;;;;;;;;5032415;28;20025;-64
2023/06/14 03:26:55;;;;;;;3.13;2.20;;;;;;;;;;5032516;28;20496;-64
2023/06/14 03:29:21;;;;;;;2.17;2.00;;;;;;;;;;5032527;28;20108;-63
2023/06/14 03:32:03;;;;;;;2.50;2.00;;;;;;;;;;5032702;28;20025;-64
2023/06/14 03:34:29;;;;;;;2.53;2.20;;;;;;;;;;5032240;28;20029;-64
2023/06/14 03:36:55;;;;;;;2.33;2.08;;;;;;;;;;5032693;28;20032;-64
2023/06/14 03:39:20;;;;;;;2.65;2.17;;;;;;;;;;5032374;28;20056;-63
2023/06/14 03:41:46;;;;;;;2.72;2.10;;;;;;;;;;5032334;28;20017;-63
2023/06/14 03:44:20;;;;;;;2.72;2.30;;;;;;;;;;5032311;28;20029;-64
2023/06/14 03:46:46;;;;;;;2.90;1.98;;;;;;;;;;5032343;28;20505;-63
2023/06/14 03:49:12;;;;;;;2.72;2.30;;;;;;;;;;5032220;28;20076;-63
2023/06/14 03:51:39;;;;;;;2.53;2.22;;;;;;;;;;5047656;28;20382;-64
2023/06/14 03:54:06;;;;;;;2.17;2.00;;;;;;;;;;5032127;28;20108;-63
2023/06/14 03:56:32;;;;;;;3.75;2.33;;;;;;;;;;5032513;28;20065;-63
2023/06/14 03:58:57;;;;;;;2.97;2.10;;;;;;;;;;5032170;28;20049;-64
2023/06/14 04:01:29;;;;;;;3.03;2.28;;;;;;;;;;5032234;28;20044;-64
2023/06/14 04:03:56;;;;;;;2.92;2.00;;;;;;;;;;5032478;28;20465;-64
2023/06/14 04:06:22;;;;;;;2.30;2.08;;;;;;;;;;5032092;28;20034;-64
2023/06/14 04:08:49;;;;;;;2.40;2.20;;;;;;;;;;5032266;28;20087;-64
2023/06/14 04:11:15;;;;;;;2.58;2.33;;;;;;;;;;5031925;28;20049;-64
2023/06/14 04:13:41;;;;;;;3.00;2.25;;;;;;;;;;5032227;28;20124;-63
2023/06/14 04:16:06;;;;;;;2.30;2.10;;;;;;;;;;5032004;28;20473;-63
2023/06/14 04:18:32;;;;;;;2.22;2.03;;;;;;;;;;5032232;28;20061;-63
2023/06/14 04:20:57;;;;;;;2.40;2.20;;;;;;;;;;5032247;28;20417;-64
2023/06/14 04:23:23;;;;;;;2.50;2.30;;;;;;;;;;5032219;28;20104;-64
2023/06/14 04:25:49;;;;;;;3.50;2.30;;;;;;;;;;5032209;28;20076;-64
2023/06/14 04:28:15;;;;;;;2.53;2.30;;;;;;;;;;5031858;28;20490;-64
2023/06/14 04:30:42;;;;;;;2.30;2.10;;;;;;;;;;5032184;28;20029;-64
2023/06/14 04:33:09;;;;;;;2.42;2.20;;;;;;;;;;5031828;28;20112;-64
2023/06/14 04:35:35;;;;;;;4.25;2.38;;;;;;;;;;5032730;28;20385;-64
2023/06/14 04:38:04;;;;;;;2.30;2.10;;;;;;;;;;5035586;28;20037;-64
2023/06/14 04:40:33;;;;;;;2.40;2.20;;;;;;;;;;5035590;28;20025;-64
2023/06/14 04:42:59;;;;;;;2.53;2.33;;;;;;;;;;5035434;28;20029;-64
2023/06/14 04:45:31;;;;;;;2.13;1.92;;;;;;;;;;5035735;28;20017;-64
2023/06/14 04:47:59;;;;;;;2.47;2.25;;;;;;;;;;5035697;28;20034;-64
2023/06/14 04:50:25;;;;;;;2.17;1.95;;;;;;;;;;5035663;28;20369;-64
2023/06/14 04:52:51;;;;;;;2.33;2.00;;;;;;;;;;5035240;28;20030;-64
2023/06/14 04:55:18;;;;;;;2.42;2.22;;;;;;;;;;5035471;28;20061;-64
2023/06/14 04:57:44;;;;;;;3.05;2.08;;;;;;;;;;5035483;28;20061;-64
2023/06/14 05:00:11;;;;;;;4.20;2.40;;;;;;;;;;5035221;28;20095;-64
2023/06/14 05:02:37;;;;;;;2.53;2.20;;;;;;;;;;5035089;28;20523;-64
2023/06/14 05:05:08;;;;;;;2.42;2.20;;;;;;;;;;5035104;28;20022;-64
2023/06/14 05:07:34;;;;;;;3.00;2.05;;;;;;;;;;5035127;28;20021;-64
2023/06/14 05:10:02;;;;;;;2.88;2.20;;;;;;;;;;5034912;28;20045;-64
2023/06/14 05:12:29;;;;;;;2.92;2.00;;;;;;;;;;5034822;28;20026;-64
2023/06/14 05:14:54;;;;;;;2.28;2.08;;;;;;;;;;5034771;28;20112;-64
2023/06/14 05:17:20;;;;;;;3.28;1.90;;;;;;;;;;5034834;28;20064;-64
2023/06/14 05:19:46;;;;;;;2.30;1.90;;;;;;;;;;5034791;28;20029;-64
2023/06/14 05:22:12;;;;;;;3.47;2.20;;;;;;;;;;5034652;28;20083;-63
2023/06/14 05:24:37;;;;;;;2.30;2.10;;;;;;;;;;5034920;28;20048;-64
2023/06/14 05:27:03;;;;;;;3.20;2.53;;;;;;;;;;5034923;28;20025;-64
2023/06/14 05:29:28;;;;;;;2.85;2.25;;;;;;;;;;5034763;28;20539;-64
2023/06/14 05:31:54;;;;;;;3.88;2.20;;;;;;;;;;5035132;28;20025;-64
2023/06/14 05:34:20;;;;;;;2.58;2.10;;;;;;;;;;5034534;28;20029;-65
2023/06/14 05:36:46;;;;;;;3.25;2.30;;;;;;;;;;5034416;28;20025;-64
2023/06/14 05:39:12;;;;;;;2.63;2.20;;;;;;;;;;5034756;28;20363;-64
2023/06/14 05:41:37;;;;;;;2.25;2.00;;;;;;;;;;5034416;28;20032;-64
2023/06/14 05:44:03;;;;;;;2.67;2.17;;;;;;;;;;5034373;28;20103;-63
2023/06/14 05:46:28;;;;;;;2.38;1.95;;;;;;;;;;5033838;28;20029;-64
2023/06/14 05:48:55;;;;;;;2.63;2.22;;;;;;;;;;5034389;28;20102;-64
2023/06/14 05:51:21;;;;;;;2.55;2.15;;;;;;;;;;5034413;28;20434;-64
2023/06/14 05:53:47;;;;;;;2.47;2.28;;;;;;;;;;5034404;28;20096;-64
2023/06/14 05:56:13;;;;;;;3.17;2.30;;;;;;;;;;5032865;28;20034;-64
2023/06/14 05:58:39;;;;;;;2.22;2.00;;;;;;;;;;5034401;28;20104;-64
2023/06/14 06:01:06;;;;;;;2.38;2.17;;;;;;;;;;5033932;28;20121;-64
2023/06/14 06:03:32;;;;;;;2.78;2.20;;;;;;;;;;5033941;28;20100;-63
2023/06/14 06:05:58;;;;;;;3.20;2.35;;;;;;;;;;5033879;28;20055;-64
2023/06/14 06:08:24;;;;;;;2.25;2.05;;;;;;;;;;5033881;28;20067;-64
2023/06/14 06:10:50;;;;;;;2.50;2.30;;;;;;;;;;5033603;28;20046;-64
2023/06/14 06:13:15;;;;;;;2.58;2.35;;;;;;;;;;5034110;28;20037;-64
2023/06/14 06:15:41;;;;;;;2.35;2.15;;;;;;;;;;5033701;28;20126;-63
2023/06/14 06:18:07;;;;;;;2.78;2.20;;;;;;;;;;5033787;28;20033;-63
2023/06/14 06:20:32;;;;;;;2.47;2.10;;;;;;;;;;5033533;28;20032;-63
2023/06/14 06:22:59;;;;;;;2.40;2.20;;;;;;;;;;5033607;28;20013;-64
2023/06/14 06:25:26;;;;;;;2.58;2.25;;;;;;;;;;5033506;28;20029;-64
2023/06/14 06:27:53;;;;;;;2.63;2.13;;;;;;;;;;5033524;28;20469;-63
2023/06/14 06:30:19;;;;;;;3.75;2.40;;;;;;;;;;5033355;28;20021;-64
2023/06/14 06:32:45;;;;;;;2.53;2.30;;;;;;;;;;5033582;28;20032;-64
2023/06/14 06:35:12;;;;;;;2.58;2.08;;;;;;;;;;5033329;28;20036;-63
2023/06/14 06:37:38;;;;;;;3.30;2.10;;;;;;;;;;5033285;28;20028;-63
2023/06/14 06:40:05;;;;;;;2.90;2.20;;;;;;;;;;5033318;28;20029;-65
2023/06/14 06:42:32;;;;;;;2.40;2.20;;;;;;;;;;5033047;28;20087;-63
2023/06/14 06:44:58;;;;;;;4.75;2.10;;;;;;;;;;5033355;28;20389;-64
2023/06/14 06:47:24;;;;;;;2.75;2.10;;;;;;;;;;5033199;28;20018;-65
2023/06/14 06:49:50;;;;;;;4.97;2.30;;;;;;;;;;5033454;28;20021;-64
2023/06/14 06:52:16;;;;;;;3.03;2.40;;;;;;;;;;5033166;28;20052;-66
2023/06/14 06:54:41;;;;;;;2.22;2.03;;;;;;;;;;5032953;28;20087;-65
2023/06/14 06:57:07;;;;;;;2.40;2.20;;;;;;;;;;5033033;28;20021;-65
2023/06/14 06:59:33;;;;;;;3.35;2.40;;;;;;;;;;5039423;28;20033;-64
2023/06/14 07:01:59;;;;;;;2.50;2.30;;;;;;;;;;5037419;28;20021;-65
2023/06/14 07:04:25;;;;;;;2.55;2.35;;;;;;;;;;5032921;28;20170;-66
2023/06/14 07:06:50;;;;;;;2.75;2.33;;;;;;;;;;5042079;28;20493;-64
2023/06/14 07:09:16;;;;;;;2.78;2.40;;;;;;;;;;5041301;28;20406;-62
2023/06/14 07:11:45;;;;;;;2.70;2.45;;;;;;;;;;5039657;28;20096;-64
2023/06/14 07:14:10;;;;;;;5.18;3.00;;;;;;;;;;5032157;28;20029;-64
2023/06/14 07:16:37;;;;;;;5.25;2.35;;;;;;;;;;5031163;28;20029;-65
2023/06/14 07:19:04;;;;;;;3.85;2.35;;;;;;;;;;5032676;28;20025;-65
2023/06/14 07:21:30;;;;;;;3.13;2.30;;;;;;;;;;5031161;28;20165;-63
2023/06/14 07:23:56;;;;;;;4.53;2.95;;;;;;;;;;5032478;28;20053;-64
2023/06/14 07:26:22;;;;;;;6.07;2.50;;;;;;;;;;5031964;28;20108;-64
2023/06/14 07:28:48;;;;;;;2.47;2.08;;;;;;;;;;5030682;28;20113;-63
2023/06/14 07:31:15;;;;;;;3.47;2.17;;;;;;;;;;5030863;28;20029;-65
2023/06/14 07:33:41;;;;;;;3.05;2.10;;;;;;;;;;5030773;28;20033;-64
2023/06/14 07:36:07;;;;;;;2.92;2.22;;;;;;;;;;5030671;28;20036;-65
2023/06/14 07:38:33;;;;;;;3.00;2.67;;;;;;;;;;5030767;28;20033;-64
2023/06/14 07:40:59;;;;;;;3.97;2.78;;;;;;;;;;5030784;28;20057;-62
2023/06/14 07:43:25;;;;;;;3.47;2.53;;;;;;;;;;5030934;28;20215;-65
2023/06/14 07:45:55;;;;;;;3.28;2.60;;;;;;;;;;5030781;28;20478;-65
2023/06/14 07:48:20;;;;;;;3.88;2.53;;;;;;;;;;5030886;28;20052;-65
2023/06/14 07:50:46;;;;;;;4.85;2.40;;;;;;;;;;5030562;28;20422;-65
2023/06/14 07:53:11;;;;;;;5.30;2.40;;;;;;;;;;5030945;28;20029;-66
2023/06/14 07:55:38;;;;;;;4.55;2.60;;;;;;;;;;5030579;28;20481;-67
2023/06/14 07:58:04;;;;;;;2.95;2.40;;;;;;;;;;5030728;28;20029;-67
2023/06/14 08:00:30;;;;;;;4.22;2.63;;;;;;;;;;5030608;28;20025;-65
2023/06/14 08:02:59;;;;;;;2.92;2.42;;;;;;;;;;5030575;28;20068;-66
2023/06/14 08:05:28;;;;;;;2.85;2.55;;;;;;;;;;5030753;28;20025;-66
2023/06/14 08:07:55;;;;;;;4.10;2.60;;;;;;;;;;5030525;28;20083;-66
2023/06/14 08:10:22;;;;;;;4.63;2.53;;;;;;;;;;5032563;28;20045;-66
2023/06/14 08:12:50;;;;;;;4.07;2.70;;;;;;;;;;5050064;28;20021;-66
2023/06/14 08:15:17;;;;;;;2.50;2.20;;;;;;;;;;5034459;28;20075;-67
2023/06/14 08:17:45;;;;;;;6.13;2.40;;;;;;;;;;5034408;28;20440;-66
2023/06/14 08:20:11;;;;;;;4.95;2.45;;;;;;;;;;5034604;28;20052;-66
2023/06/14 08:22:37;;;;;;;2.60;2.40;;;;;;;;;;5034649;28;20044;-66
2023/06/14 08:25:04;;;;;;;2.97;2.60;;;;;;;;;;5034159;28;20118;-65
2023/06/14 08:27:30;;;;;;;4.75;2.35;;;;;;;;;;5034315;28;20040;-66
2023/06/14 08:29:56;;;;;;;2.55;2.35;;;;;;;;;;5034430;28;20042;-66
2023/06/14 08:32:22;;;;;;;4.60;2.63;;;;;;;;;;5034000;28;20468;-65
2023/06/14 08:34:48;;;;;;;5.40;2.78;;;;;;;;;;5033931;28;20025;-65
2023/06/14 08:37:14;;;;;;;2.70;2.50;;;;;;;;;;5034108;28;20075;-65
2023/06/14 08:39:39;;;;;;;3.40;2.35;;;;;;;;;;5034123;28;20061;-65
2023/06/14 08:42:07;;;;;;;6.72;2.72;;;;;;;;;;5034106;28;20431;-65
2023/06/14 08:44:33;;;;;;;2.80;2.45;;;;;;;;;;5032460;28;20030;-66
2023/06/14 08:47:03;;;;;;;2.90;2.60;;;;;;;;;;5048981;28;20473;-67
2023/06/14 08:49:31;;;;;;;3.15;2.50;;;;;;;;;;5033662;28;20034;-66
2023/06/14 08:52:00;;;;;;;3.80;2.50;;;;;;;;;;5034076;28;20037;-67
2023/06/14 08:54:30;;;;;;;3.95;2.42;;;;;;;;;;5033593;28;20120;-66
2023/06/14 08:56:59;;;;;;;4.30;3.13;;;;;;;;;;5033924;28;20037;-65
2023/06/14 08:59:26;;;;;;;10.32;3.00;;;;;;;;;;5033631;28;20022;-64
2023/06/14 09:01:54;;;;;;;3.58;2.45;;;;;;;;;;5033746;28;20342;-64
2023/06/14 09:04:24;;;;;;;4.35;2.58;;;;;;;;;;5033286;28;20080;-64
2023/06/14 09:06:52;;;;;;;3.95;2.53;;;;;;;;;;5033446;28;20021;-64
2023/06/14 09:09:20;;;;;;;3.88;2.38;;;;;;;;;;5033098;28;20133;-65
2023/06/14 09:11:46;;;;;;;5.85;2.70;;;;;;;;;;5033313;28;20037;-66
2023/06/14 09:14:12;;;;;;;7.07;2.60;;;;;;;;;;5033134;28;20033;-67
2023/06/14 09:16:37;;;;;;;3.90;2.45;;;;;;;;;;5033347;28;20096;-65
2023/06/14 09:19:03;;;;;;;3.10;2.40;;;;;;;;;;5033285;28;20022;-64
2023/06/14 09:21:35;;;;;;;2.92;2.30;;;;;;;;;;5032530;28;20032;-65
2023/06/14 09:24:02;;;;;;;9.55;2.58;;;;;;;;;;5033126;28;20591;-65
2023/06/14 09:26:28;;;;;;;15.88;2.92;;;;;;;;;;5033165;28;20040;-67
2023/06/14 09:28:55;;;;;;;6.05;2.83;;;;;;;;;;5033277;28;20033;-67
2023/06/14 09:31:21;;;;;;;11.52;2.78;;;;;;;;;;5033355;28;20104;-66
2023/06/14 09:33:49;;;;;;;13.48;2.95;;;;;;;;;;5033044;28;20748;-66
2023/06/14 09:36:17;;;;;;;7.45;2.63;;;;;;;;;;5033098;28;20098;-66
2023/06/14 09:38:52;;;;;;;6.78;2.67;;;;;;;;;;5032824;28;20029;-66
2023/06/14 09:41:18;;;;;;;10.35;2.55;;;;;;;;;;5032929;28;20477;-65
2023/06/14 09:43:45;;;;;;;4.32;2.65;;;;;;;;;;5032773;28;20029;-65
2023/06/14 09:46:11;;;;;;;9.88;2.72;;;;;;;;;;5031768;28;20405;-67
2023/06/14 09:48:37;;;;;;;3.80;2.58;;;;;;;;;;5035860;28;20025;-66
2023/06/14 09:51:04;;;;;;;3.35;2.40;;;;;;;;;;5052515;28;20033;-65
2023/06/14 09:53:30;;;;;;;5.57;2.50;;;;;;;;;;5052487;28;20020;-65
2023/06/14 09:55:58;;;;;;;4.97;2.63;;;;;;;;;;5052313;28;20041;-66
2023/06/14 09:58:28;;;;;;;4.32;2.78;;;;;;;;;;5051077;28;20484;-66
2023/06/14 10:00:54;;;;;;;3.90;2.80;;;;;;;;;;5050381;28;20028;-66
2023/06/14 10:03:29;;;;;;;5.30;2.50;;;;;;;;;;5052433;28;20124;-67
2023/06/14 10:06:00;;;;;;;6.32;2.58;;;;;;;;;;5052043;28;20036;-66
2023/06/14 10:08:29;;;;;;;2.85;2.45;;;;;;;;;;5052484;28;20029;-66
2023/06/14 10:10:56;;;;;;;6.45;2.50;;;;;;;;;;5052021;28;20049;-65
2023/06/14 10:13:22;;;;;;;3.80;2.33;;;;;;;;;;5052235;28;20044;-67
2023/06/14 10:16:26;;;;;;;5.50;2.53;;;;;;;;;;5052167;28;20037;-66
2023/06/14 10:18:57;;;;;;;3.13;2.30;;;;;;;;;;5040209;28;20033;-66
2023/06/14 10:21:42;;;;;;;5.32;2.50;;;;;;;;;;5041732;28;20026;-66
2023/06/14 10:24:12;;;;;;;4.38;2.85;;;;;;;;;;5041949;28;20171;-66
2023/06/14 10:26:51;;;;;;;3.13;2.50;;;;;;;;;;5043119;28;20029;-65
2023/06/14 10:29:17;;;;;;;3.72;2.45;;;;;;;;;;5044301;28;20025;-65
2023/06/14 10:31:45;;;;;;;2.80;2.50;;;;;;;;;;5044667;28;20028;-65
2023/06/14 10:34:12;;;;;;;3.70;2.40;;;;;;;;;;5039154;28;20473;-65
2023/06/14 10:36:42;;;;;;;2.85;2.20;;;;;;;;;;5041786;28;20017;-65
2023/06/14 10:39:10;;;;;;;;;;;;;;;;;;5055071;28;20022;-66
2023/06/14 10:41:39;;;;;;;3.92;2.30;;;;;;;;;;5031598;28;19966;-66
2023/06/14 10:44:31;;;;;;;4.47;2.43;;;;;;;;;;5031560;28;20022;-66
2023/06/14 10:47:00;;;;;;;6.00;2.30;;;;;;;;;;5045400;28;20110;-66
2023/06/14 10:49:41;;;;;;;6.23;2.60;;;;;;;;;;5048495;28;20033;-66
2023/06/14 10:52:21;;;;;;;4.30;2.60;;;;;;;;;;5051407;28;20258;-65
2023/06/14 10:55:06;;;;;;;;;;;;;;;;;;5044927;28;20082;-65
2023/06/14 10:57:33;;;;;;;5.53;2.50;;;;;;;;;;5031379;28;20043;-67
2023/06/14 11:00:45;;;;;;;4.15;2.30;;;;;;;;;;5035661;28;20112;-67
2023/06/14 11:03:16;;;;;;;4.38;2.50;;;;;;;;;;5026183;28;20056;-67
2023/06/14 11:05:47;;;;;;;4.90;2.80;;;;;;;;;;5031486;28;20088;-66
2023/06/14 11:08:45;;;;;;;3.33;2.25;;;;;;;;;;5031224;28;20112;-66
2023/06/14 11:11:13;;;;;;;11.95;2.80;;;;;;;;;;5029635;28;20052;-66
2023/06/14 11:13:42;;;;;;;3.42;2.20;;;;;;;;;;5031310;28;20033;-65
2023/06/14 11:16:12;;;;;;;5.00;2.60;;;;;;;;;;5031042;28;20040;-64
2023/06/14 11:18:38;;;;;;;2.90;2.45;;;;;;;;;;5033043;28;20036;-66
2023/06/14 11:21:04;;;;;;;3.58;2.42;;;;;;;;;;5046897;28;20377;-66
2023/06/14 11:23:29;;;;;;;5.00;2.38;;;;;;;;;;5050720;28;20025;-65
2023/06/14 11:25:55;;;;;;;5.25;2.05;;;;;;;;;;5050842;28;20052;-66
2023/06/14 11:28:21;;;;;;;5.35;2.50;;;;;;;;;;5043145;28;20032;-66
2023/06/14 11:30:48;;;;;;;3.17;2.05;;;;;;;;;;5030813;28;20034;-66
2023/06/14 11:33:20;;;;;;;3.42;2.38;;;;;;;;;;5034994;28;20489;-66
2023/06/14 11:35:46;;;;;;;4.72;2.50;;;;;;;;;;5050644;28;20052;-65
2023/06/14 11:38:12;;;;;;;3.70;2.30;;;;;;;;;;5049254;28;20017;-65
2023/06/14 11:40:39;;;;;;;5.18;2.38;;;;;;;;;;5050809;28;20497;-65
2023/06/14 11:43:04;;;;;;;5.28;2.85;;;;;;;;;;5050578;28;20021;-67
2023/06/14 11:45:31;;;;;;;2.53;2.30;;;;;;;;;;5050497;28;20032;-67
2023/06/14 11:48:00;;;;;;;6.07;2.53;;;;;;;;;;5049214;28;20083;-67
2023/06/14 11:50:27;;;;;;;42.85;5.22;;;;;;;;;;5050719;28;20104;-66
2023/06/14 11:52:57;;;;;;;154.23;9.82;;;;;;;;;;5041706;28;20544;-69
2023/06/14 11:55:23;;;;;;;204.98;14.57;;;;;;;;;;5030522;28;20044;-66
2023/06/14 11:57:49;;;;;;;95.78;8.77;;;;;;;;;;5030868;28;20097;-67
2023/06/14 12:00:17;;;;;;;120.45;10.77;;;;;;;;;;5030787;28;20160;-67
2023/06/14 12:02:43;;;;;;;139.45;12.88;;;;;;;;;;5029280;28;20033;-67
2023/06/14 12:05:10;;;;;;;94.63;9.35;;;;;;;;;;5030305;28;20033;-67
2023/06/14 12:07:41;;;;;;;92.65;9.25;;;;;;;;;;5030240;28;20036;-67
2023/06/14 12:10:10;;;;;;;95.47;11.02;;;;;;;;;;5030232;28;20053;-67
2023/06/14 12:12:39;;;;;;;66.18;9.02;;;;;;;;;;5030646;28;20030;-67
2023/06/14 12:15:07;;;;;;;65.22;7.55;;;;;;;;;;5030617;28;20034;-67
2023/06/14 12:17:41;;;;;;;69.88;7.68;;;;;;;;;;5030421;28;20037;-67
2023/06/14 12:20:13;;;;;;;44.70;5.80;;;;;;;;;;5030416;28;20029;-66
2023/06/14 12:22:47;;;;;;;64.85;7.38;;;;;;;;;;5030627;28;20029;-66
2023/06/14 12:25:26;;;;;;;43.65;6.65;;;;;;;;;;5030407;28;20025;-66
2023/06/14 12:27:53;;;;;;;55.27;6.80;;;;;;;;;;5030259;28;20036;-68
2023/06/14 12:30:19;;;;;;;29.48;5.13;;;;;;;;;;5030375;28;20374;-66
2023/06/14 12:32:45;;;;;;;34.13;4.90;;;;;;;;;;5029989;28;20035;-67
2023/06/14 12:35:11;;;;;;;42.13;5.20;;;;;;;;;;5030051;28;20021;-66
2023/06/14 12:37:36;;;;;;;24.73;4.95;;;;;;;;;;5028783;28;20075;-66
2023/06/14 12:40:06;;;;;;;40.10;5.35;;;;;;;;;;5030061;28;20033;-65
2023/06/14 12:42:33;;;;;;;34.83;4.55;;;;;;;;;;5029918;28;20109;-66
2023/06/14 12:44:59;;;;;;;24.05;4.15;;;;;;;;;;5030062;28;20029;-65
2023/06/14 12:47:25;;;;;;;26.98;4.95;;;;;;;;;;5029881;28;20025;-65
2023/06/14 12:49:51;;;;;;;32.75;4.78;;;;;;;;;;5039148;28;20083;-66
2023/06/14 12:52:17;;;;;;;26.85;4.63;;;;;;;;;;5030267;28;20088;-68
2023/06/14 12:54:42;;;;;;;25.83;4.30;;;;;;;;;;5030083;28;20405;-67
2023/06/14 12:57:09;;;;;;;28.58;4.90;;;;;;;;;;5031685;28;20026;-68
2023/06/14 12:59:35;;;;;;;31.02;4.32;;;;;;;;;;5033539;28;20038;-67
2023/06/14 13:02:22;;;;;;;27.58;4.70;;;;;;;;;;5033532;28;20022;-67
2023/06/14 13:04:48;;;;;;;21.67;4.05;;;;;;;;;;5044037;28;20052;-67
2023/06/14 13:07:14;;;;;;;28.95;4.70;;;;;;;;;;5050646;28;20021;-68
2023/06/14 13:09:41;;;;;;;20.95;4.60;;;;;;;;;;5051413;28;20129;-67
2023/06/14 13:12:08;;;;;;;27.90;4.72;;;;;;;;;;5047088;28;20721;-68
2023/06/14 13:14:36;;;;;;;24.40;4.15;;;;;;;;;;5042459;28;20040;-67
2023/06/14 13:17:02;;;;;;;15.65;3.63;;;;;;;;;;5036928;28;20030;-67
2023/06/14 13:19:27;;;;;;;21.73;3.67;;;;;;;;;;5049427;28;20431;-68
2023/06/14 13:21:53;;;;;;;13.60;3.60;;;;;;;;;;5053385;28;20083;-68
2023/06/14 13:24:19;;;;;;;18.75;3.80;;;;;;;;;;5051969;28;20068;-68
2023/06/14 13:26:44;;;;;;;17.83;3.47;;;;;;;;;;5053235;28;20025;-68
2023/06/14 13:29:10;;;;;;;12.77;3.58;;;;;;;;;;5052437;28;20044;-67
2023/06/14 13:31:36;;;;;;;10.85;3.58;;;;;;;;;;5051512;28;20089;-68
2023/06/14 13:34:01;;;;;;;8.05;3.63;;;;;;;;;;5053123;28;20032;-68
2023/06/14 13:36:27;;;;;;;10.48;2.95;;;;;;;;;;5045185;28;20454;-68
2023/06/14 13:38:54;;;;;;;12.82;3.90;;;;;;;;;;5032741;28;20078;-68
2023/06/14 13:41:20;;;;;;;13.63;3.15;;;;;;;;;;5031688;28;20026;-67
2023/06/14 13:43:46;;;;;;;13.68;3.85;;;;;;;;;;5032909;28;20036;-67
2023/06/14 13:46:11;;;;;;;8.55;3.00;;;;;;;;;;5052723;28;20040;-68
2023/06/14 13:48:37;;;;;;;10.48;3.22;;;;;;;;;;5051330;28;20029;-68
2023/06/14 13:51:04;;;;;;;9.68;3.42;;;;;;;;;;5052969;28;20119;-68
2023/06/14 13:53:29;;;;;;;8.65;3.17;;;;;;;;;;5052576;28;20024;-68
2023/06/14 13:55:55;;;;;;;7.07;2.80;;;;;;;;;;5052581;28;20024;-67
2023/06/14 13:58:21;;;;;;;10.75;3.10;;;;;;;;;;5052388;28;20029;-70
2023/06/14 14:00:46;;;;;;;7.07;2.65;;;;;;;;;;5046682;28;20032;-71
2023/06/14 14:03:12;;;;;;;6.72;2.80;;;;;;;;;;5044784;28;20021;-70
2023/06/14 14:05:38;;;;;;;7.18;2.70;;;;;;;;;;5043814;28;20082;-69
2023/06/14 14:08:04;;;;;;;8.82;3.00;;;;;;;;;;5048123;28;20017;-70
2023/06/14 14:10:29;;;;;;;5.60;2.63;;;;;;;;;;5044843;28;20045;-70
2023/06/14 14:12:56;;;;;;;8.55;3.00;;;;;;;;;;5047848;28;20082;-68
2023/06/14 14:15:22;;;;;;;4.32;2.42;;;;;;;;;;5046214;28;20128;-69
2023/06/14 14:17:47;;;;;;;7.68;2.60;;;;;;;;;;5050478;28;20447;-69
2023/06/14 14:20:15;;;;;;;5.43;2.45;;;;;;;;;;5052061;28;20048;-69
2023/06/14 14:22:42;;;;;;;9.60;2.72;;;;;;;;;;5038335;28;20079;-68
2023/06/14 14:25:08;;;;;;;7.18;2.45;;;;;;;;;;5039499;28;20563;-69
2023/06/14 14:27:34;;;;;;;5.15;2.60;;;;;;;;;;5032001;28;20030;-70
2023/06/14 14:29:59;;;;;;;7.82;3.08;;;;;;;;;;5032033;28;20025;-68
2023/06/14 14:32:25;;;;;;;8.95;3.10;;;;;;;;;;5031856;28;20037;-68
2023/06/14 14:34:51;;;;;;;13.23;3.50;;;;;;;;;;5032781;28;20025;-69
2023/06/14 14:37:16;;;;;;;14.32;3.25;;;;;;;;;;5038347;28;20115;-68
2023/06/14 14:39:44;;;;;;;5.60;3.10;;;;;;;;;;5030154;28;20099;-69
2023/06/14 14:42:11;;;;;;;8.75;3.40;;;;;;;;;;5036266;28;20025;-68